Time;durP1;ratioP1;P1;durP2;ratioP2;P2;SDS_P1;SDS_P2;PMS_P1;PMS_P2;Temp;Humidity;BMP_temperature;BMP_pressure;BME280_temperature;BME280_humidity;BME280_pressure;Samples;Min_cycle;Max_cycle;Signal;HPM_P1;HPM_P2
2023/07/04 00:01:54;;;;;;;19.90;11.70;;;;;;;22.68;77.05;99173.85;78246;1299;3055216;-62
2023/07/04 00:04:21;;;;;;;16.00;9.10;;;;;;;22.54;78.24;99178.90;79443;1295;3013570;-61
2023/07/04 00:06:48;;;;;;;16.70;9.80;;;;;;;23.00;76.76;99173.20;79530;1295;3012037;-63
2023/07/04 00:09:17;;;;;;;22.60;11.30;;;;;;;23.34;75.00;99169.62;78256;1297;3029737;-62
2023/07/04 00:11:45;;;;;;;18.80;11.30;;;;;;;23.33;74.76;99175.59;79487;1294;3013157;-61
2023/07/04 00:14:12;;;;;;;27.90;12.30;;;;;;;23.15;74.91;99177.98;79437;1295;3011618;-63
2023/07/04 00:16:41;;;;;;;21.20;12.70;;;;;;;22.86;75.81;99178.81;78245;1297;3057538;-62
2023/07/04 00:19:07;;;;;;;22.70;12.10;;;;;;;22.66;76.21;99177.31;79512;1295;3013180;-63
2023/07/04 00:21:34;;;;;;;20.70;12.10;;;;;;;22.56;76.27;99182.31;79461;1294;3011639;-62
2023/07/04 00:24:02;;;;;;;17.70;8.70;;;;;;;22.52;75.57;99180.30;78276;1297;3028045;-62
2023/07/04 00:26:29;;;;;;;15.90;8.50;;;;;;;22.92;73.43;99177.79;79446;1297;3012902;-63
2023/07/04 00:28:57;;;;;;;15.10;9.50;;;;;;;23.30;70.94;99173.83;79380;1297;3013280;-61
2023/07/04 00:31:25;;;;;;;17.60;9.40;;;;;;;23.27;70.25;99174.89;78226;1294;3056311;-63
2023/07/04 00:33:52;;;;;;;16.40;9.10;;;;;;;23.10;70.45;99174.19;79534;1294;3013114;-64
2023/07/04 00:36:20;;;;;;;17.40;10.20;;;;;;;23.00;70.65;99170.05;79462;1294;3013016;-63
2023/07/04 00:38:49;;;;;;;17.80;9.60;;;;;;;22.90;70.73;99168.73;78223;1297;3052840;-61
2023/07/04 00:41:17;;;;;;;13.10;8.60;;;;;;;22.82;70.44;99171.77;79514;1297;3013138;-64
2023/07/04 00:46:38;;;;;;;14.30;9.40;;;;;;;22.60;70.22;99170.96;78233;1297;3052846;-62
2023/07/04 00:49:22;;;;;;;13.20;8.70;;;;;;;22.49;69.97;99176.27;79509;1294;3011660;-62
2023/07/04 00:52:04;;;;;;;11.70;8.80;;;;;;;22.37;70.27;99173.88;78156;1301;3049706;-63
2023/07/04 00:54:36;;;;;;;15.10;8.00;;;;;;;22.27;70.56;99175.69;78110;1295;3054987;-62
2023/07/04 00:57:06;;;;;;;11.20;8.30;;;;;;;22.18;70.99;99176.61;79422;1297;3013608;-62
2023/07/04 00:59:37;;;;;;;10.30;6.50;;;;;;;22.09;71.43;99181.14;78263;1298;3052325;-61
2023/07/04 01:02:05;;;;;;;14.40;7.00;;;;;;;22.62;69.96;99183.56;79337;1294;3012684;-62
2023/07/04 01:04:33;;;;;;;14.90;8.00;;;;;;;23.13;68.06;99184.28;78264;1297;3069096;-62
2023/07/04 01:07:12;;;;;;;14.70;9.00;;;;;;;23.23;67.59;99184.27;79558;1294;3014746;-63
2023/07/04 01:09:42;;;;;;;17.80;8.50;;;;;;;23.07;67.49;99186.13;78218;1297;3049231;-61
2023/07/04 01:12:12;;;;;;;18.00;10.20;;;;;;;22.93;67.58;99188.52;79338;1300;3011777;-62
2023/07/04 01:14:42;;;;;;;21.00;11.00;;;;;;;22.76;67.85;99190.13;78196;1297;3049281;-61
2023/07/04 01:17:09;;;;;;;18.90;10.10;;;;;;;22.53;68.18;99197.58;79434;1297;3013757;-62
2023/07/04 01:19:36;;;;;;;18.00;10.60;;;;;;;22.32;68.98;99194.67;79443;1297;3011826;-61
2023/07/04 01:22:21;;;;;;;19.60;11.00;;;;;;;22.22;68.89;99193.45;78161;1295;3052489;-61
2023/07/04 01:24:56;;;;;;;20.20;11.40;;;;;;;22.14;69.21;99190.83;78041;1300;3057177;-62
2023/07/04 01:27:26;;;;;;;23.20;11.80;;;;;;;22.05;69.72;99195.50;78943;1295;3013976;-62
2023/07/04 01:29:54;;;;;;;22.80;11.80;;;;;;;21.96;70.06;99197.75;79407;1295;3013102;-62
2023/07/04 01:32:22;;;;;;;19.60;11.20;;;;;;;21.89;70.40;99196.80;79368;1299;3012937;-61
2023/07/04 01:34:50;;;;;;;19.40;11.10;;;;;;;21.83;70.76;99199.84;78200;1300;3051513;-62
2023/07/04 01:37:18;;;;;;;22.90;11.00;;;;;;;21.76;70.84;99204.43;79257;1298;3014055;-62
2023/07/04 01:39:45;;;;;;;14.20;7.50;;;;;;;21.77;70.78;99202.42;79474;1297;3011663;-65
2023/07/04 01:42:13;;;;;;;15.10;6.60;;;;;;;22.35;69.53;99210.88;78208;1297;3057445;-61
2023/07/04 01:44:40;;;;;;;13.10;7.20;;;;;;;22.89;67.78;99205.63;79500;1297;3013522;-64
2023/07/04 01:47:06;;;;;;;13.40;7.90;;;;;;;23.04;67.32;99201.36;79448;1295;3013145;-66
2023/07/04 01:49:35;;;;;;;13.30;7.30;;;;;;;22.95;67.10;99202.61;78233;1297;3029145;-62
2023/07/04 01:52:01;;;;;;;11.40;7.00;;;;;;;22.81;67.48;99202.65;79517;1298;3013332;-63
2023/07/04 01:54:28;;;;;;;13.80;6.80;;;;;;;22.66;67.70;99199.91;79354;1299;3011727;-61
2023/07/04 01:56:56;;;;;;;11.70;6.80;;;;;;;22.50;68.16;99200.40;78183;1299;3026525;-62
2023/07/04 01:59:23;;;;;;;15.10;6.80;;;;;;;22.37;68.38;99199.81;79386;1298;3013344;-62
2023/07/04 02:01:50;;;;;;;13.10;7.20;;;;;;;22.25;68.85;99201.63;79283;1300;3013057;-61
2023/07/04 02:04:18;;;;;;;11.10;7.30;;;;;;;22.16;69.22;99206.75;78211;1300;3052789;-62
2023/07/04 02:06:44;;;;;;;15.10;6.60;;;;;;;22.04;69.71;99208.85;79521;1300;3013572;-61
2023/07/04 02:09:11;;;;;;;15.70;7.20;;;;;;;21.97;70.06;99211.54;79481;1300;3012335;-61
2023/07/04 02:11:39;;;;;;;13.20;7.50;;;;;;;21.83;70.83;99214.77;78177;1300;3028356;-62
2023/07/04 02:14:06;;;;;;;15.60;8.10;;;;;;;21.77;70.88;99213.77;79500;1295;3013375;-61
2023/07/04 02:16:33;;;;;;;12.50;5.70;;;;;;;21.74;71.25;99214.46;79352;1298;3011941;-62
2023/07/04 02:19:02;;;;;;;13.80;6.60;;;;;;;22.29;70.21;99213.55;78210;1298;3051518;-64
2023/07/04 02:21:28;;;;;;;15.30;7.40;;;;;;;22.85;68.44;99215.70;79368;1295;3013276;-63
2023/07/04 02:23:55;;;;;;;15.50;8.00;;;;;;;22.93;67.61;99220.63;79554;1300;3011794;-63
2023/07/04 02:26:23;;;;;;;16.70;8.50;;;;;;;22.87;67.72;99226.90;78217;1299;3025921;-62
2023/07/04 02:28:50;;;;;;;14.20;8.20;;;;;;;22.64;68.21;99235.66;79392;1295;3013932;-63
2023/07/04 02:31:17;;;;;;;16.60;8.90;;;;;;;22.35;69.36;99235.86;79369;1308;3013022;-59
2023/07/04 02:33:44;;;;;;;12.90;8.10;;;;;;;22.10;70.37;99232.55;78210;1300;3052810;-62
2023/07/04 02:36:11;;;;;;;14.80;8.40;;;;;;;22.03;70.49;99234.13;79250;1300;3013670;-63
2023/07/04 02:38:39;;;;;;;15.00;8.70;;;;;;;21.98;70.86;99236.33;79484;1298;3011524;-63
2023/07/04 02:41:09;;;;;;;15.80;8.90;;;;;;;21.91;71.07;99232.73;78190;1298;3055966;-64
2023/07/04 02:43:36;;;;;;;12.80;8.70;;;;;;;21.87;71.72;99235.05;79471;1295;3013279;-62
2023/07/04 02:46:05;;;;;;;15.30;6.60;;;;;;;21.86;71.62;99239.17;79373;1298;3013140;-62
2023/07/04 02:48:33;;;;;;;11.20;6.50;;;;;;;22.41;70.58;99240.52;78243;1298;3051881;-61
2023/07/04 02:51:01;;;;;;;15.90;7.20;;;;;;;22.92;68.68;99241.09;79373;1300;3013646;-60
2023/07/04 02:53:28;;;;;;;16.00;8.30;;;;;;;23.04;67.94;99242.45;79303;1298;3012005;-62
2023/07/04 02:55:56;;;;;;;15.60;7.40;;;;;;;22.99;67.90;99244.10;78094;1298;3057073;-61
2023/07/04 02:58:24;;;;;;;12.60;7.50;;;;;;;22.86;68.32;99250.95;77486;1300;5603710;-63
2023/07/04 03:00:54;;;;;;;13.10;7.30;;;;;;;22.79;68.24;99250.84;78975;1298;3013888;-63
2023/07/04 03:03:22;;;;;;;9.20;7.10;;;;;;;22.69;68.23;99249.81;79448;1300;3013149;-60
2023/07/04 03:05:49;;;;;;;10.10;7.30;;;;;;;22.48;69.07;99254.27;79384;1298;3011924;-63
2023/07/04 03:08:17;;;;;;;17.60;11.80;;;;;;;22.16;70.60;99256.89;78059;1301;3069556;-63
2023/07/04 03:10:46;;;;;;;18.60;11.80;;;;;;;21.92;72.07;99258.63;79447;1299;3018269;-61
2023/07/04 03:13:15;;;;;;;20.30;12.90;;;;;;;21.70;73.57;99260.69;78965;1298;3013460;-62
2023/07/04 03:15:42;;;;;;;15.00;9.60;;;;;;;21.64;74.05;99262.88;79252;1295;3018423;-62
2023/07/04 03:18:10;;;;;;;23.20;11.70;;;;;;;22.13;72.36;99266.83;79469;1295;3011915;-63
2023/07/04 03:20:39;;;;;;;27.30;13.10;;;;;;;22.45;71.13;99268.99;78282;1298;3053373;-62
2023/07/04 03:23:06;;;;;;;24.10;13.60;;;;;;;22.31;71.27;99276.50;79455;1298;3013178;-63
2023/07/04 03:25:32;;;;;;;23.70;14.20;;;;;;;22.09;71.65;99272.61;79452;1300;3011648;-63
2023/07/04 03:28:00;;;;;;;22.00;14.40;;;;;;;21.91;72.18;99269.72;78144;1300;3026447;-64
2023/07/04 03:30:29;;;;;;;24.90;14.60;;;;;;;21.92;72.28;99268.83;79479;1295;3013399;-62
2023/07/04 03:33:01;;;;;;;25.80;15.10;;;;;;;21.85;72.74;99270.83;78204;1295;3054096;-63
2023/07/04 03:35:27;;;;;;;29.00;16.00;;;;;;;21.84;73.10;99272.77;79473;1298;3012897;-62
2023/07/04 03:37:56;;;;;;;29.00;15.80;;;;;;;21.89;73.01;99275.40;79452;1298;3011572;-63
2023/07/04 03:40:24;;;;;;;19.90;11.90;;;;;;;22.01;72.43;99275.29;78187;1298;3068581;-64
2023/07/04 03:42:51;;;;;;;19.60;12.10;;;;;;;22.64;70.42;99272.23;79398;1295;3013093;-63
2023/07/04 03:45:17;;;;;;;26.90;14.20;;;;;;;23.02;68.42;99278.70;79375;1300;3013257;-62
2023/07/04 03:47:47;;;;;;;24.20;14.20;;;;;;;23.26;67.54;99275.77;78193;1295;3053451;-62
2023/07/04 03:50:14;;;;;;;19.30;11.70;;;;;;;23.32;67.34;99271.23;79414;1300;3013580;-61
2023/07/04 03:52:44;;;;;;;17.90;11.80;;;;;;;23.14;66.34;99278.13;79388;1298;3012025;-61
2023/07/04 03:55:12;;;;;;;18.30;11.30;;;;;;;23.04;67.15;99275.83;78236;1300;3070400;-61
2023/07/04 03:57:40;;;;;;;24.40;12.70;;;;;;;23.08;67.13;99272.15;79448;1300;3013849;-60
2023/07/04 04:00:09;;;;;;;18.20;11.30;;;;;;;23.14;66.90;99271.10;79463;1296;3011546;-63
2023/07/04 04:03:00;;;;;;;16.90;11.20;;;;;;;23.20;66.77;99267.61;78111;1295;3054485;-62
2023/07/04 04:05:28;;;;;;;16.70;9.50;;;;;;;23.23;66.51;99274.55;79423;1301;3019811;-62
2023/07/04 04:07:55;;;;;;;18.30;9.90;;;;;;;23.32;66.02;99272.23;79543;1300;3013102;-61
2023/07/04 04:10:23;;;;;;;18.00;9.60;;;;;;;23.38;65.89;99271.91;78367;1299;3068666;-62
2023/07/04 04:12:50;;;;;;;12.30;9.30;;;;;;;23.44;65.70;99274.96;79385;1295;3021058;-64
2023/07/04 04:15:16;;;;;;;15.50;8.80;;;;;;;23.48;65.69;99281.06;79422;1301;3011609;-64
2023/07/04 04:17:44;;;;;;;17.30;9.80;;;;;;;23.49;65.83;99280.66;78187;1299;3026143;-62
2023/07/04 04:20:11;;;;;;;15.10;9.10;;;;;;;23.50;65.83;99283.53;79548;1299;3019007;-63
2023/07/04 04:22:43;;;;;;;18.50;9.10;;;;;;;23.56;65.73;99287.33;79443;1300;3011860;-64
2023/07/04 04:25:15;;;;;;;15.50;9.70;;;;;;;23.58;66.07;99285.67;78253;1298;3068881;-64
2023/07/04 04:27:43;;;;;;;;;;;;;;;23.62;65.66;99286.61;79393;1295;3011802;-64
2023/07/04 04:30:11;;;;;;;18.60;8.80;;;;;;;23.64;65.99;99290.81;78281;1302;3055860;-64
2023/07/04 04:32:38;;;;;;;20.40;9.50;;;;;;;23.67;65.79;99294.97;79585;1301;3018893;-62
2023/07/04 04:35:06;;;;;;;15.90;9.60;;;;;;;23.71;65.55;99296.28;79544;1298;3011630;-62
2023/07/04 04:37:35;;;;;;;14.50;9.60;;;;;;;23.76;65.28;99296.40;78342;1309;3051691;-63
2023/07/04 04:40:02;;;;;;;18.00;10.00;;;;;;;23.83;65.24;99295.09;79509;1300;3018835;-62
2023/07/04 04:42:34;;;;;;;12.90;9.40;;;;;;;23.91;64.79;99298.52;79417;1295;3012859;-62
2023/07/04 04:45:03;;;;;;;21.00;9.50;;;;;;;24.05;64.17;99297.67;78264;1298;3056175;-63
2023/07/04 04:47:33;;;;;;;18.60;9.90;;;;;;;24.19;63.78;99295.83;79554;1296;3013285;-62
2023/07/04 04:50:01;;;;;;;13.20;8.70;;;;;;;24.28;63.07;99292.74;78291;1299;3049623;-63
2023/07/04 04:52:29;;;;;;;21.30;8.90;;;;;;;24.32;62.11;99295.27;79621;1298;3013934;-62
2023/07/04 04:55:02;;;;;;;12.90;8.00;;;;;;;24.30;62.33;99298.74;78914;1300;3011627;-62
2023/07/04 04:57:29;;;;;;;13.60;7.70;;;;;;;24.29;62.62;99297.99;79376;1299;3011509;-62
2023/07/04 04:59:59;;;;;;;18.60;7.80;;;;;;;24.20;62.72;99299.38;78329;1298;3052514;-63
2023/07/04 05:02:28;;;;;;;12.80;7.00;;;;;;;24.16;62.43;99304.05;79467;1295;3014789;-63
2023/07/04 05:04:59;;;;;;;13.80;7.10;;;;;;;24.18;62.49;99298.77;78823;1301;3014001;-63
2023/07/04 05:07:26;;;;;;;12.30;6.80;;;;;;;24.26;62.39;99300.34;79358;1295;3013673;-63
2023/07/04 05:09:57;;;;;;;14.40;7.40;;;;;;;24.21;62.30;99302.92;78234;1299;3027255;-63
2023/07/04 05:12:24;;;;;;;12.30;7.30;;;;;;;24.12;62.75;99303.75;79555;1299;3011642;-64
2023/07/04 05:14:53;;;;;;;13.10;7.30;;;;;;;24.13;63.57;99305.09;78942;1298;3011771;-63
2023/07/04 05:17:20;;;;;;;14.00;7.40;;;;;;;24.16;63.26;99310.17;79454;1298;3019065;-64
2023/07/04 05:19:47;;;;;;;14.60;7.40;;;;;;;24.08;63.43;99312.49;79506;1294;3011927;-61
2023/07/04 05:22:16;;;;;;;13.60;7.70;;;;;;;23.98;63.87;99311.48;78295;1298;3049282;-62
2023/07/04 05:24:43;;;;;;;14.90;8.30;;;;;;;23.96;64.29;99312.16;79631;1295;3013528;-63
2023/07/04 05:27:10;;;;;;;16.10;8.10;;;;;;;23.96;64.49;99310.47;79478;1295;3013457;-63
2023/07/04 05:29:38;;;;;;;11.60;8.10;;;;;;;23.95;64.62;99309.33;78235;1299;3053417;-64
2023/07/04 05:32:05;;;;;;;15.30;7.30;;;;;;;23.98;64.66;99309.63;79536;1295;3013780;-62
2023/07/04 05:34:32;;;;;;;13.20;7.20;;;;;;;24.02;64.60;99316.95;79643;1295;3011973;-62
2023/07/04 05:37:03;;;;;;;13.00;6.90;;;;;;;24.10;64.40;99316.70;78212;1308;3048705;-61
2023/07/04 05:39:30;;;;;;;12.10;7.40;;;;;;;24.12;63.93;99318.42;79506;1300;3013328;-62
2023/07/04 05:41:59;;;;;;;11.20;6.30;;;;;;;24.20;63.50;99317.09;78934;1299;3011933;-63
2023/07/04 05:44:25;;;;;;;13.40;6.80;;;;;;;24.28;62.99;99312.15;79421;1301;3013725;-63
2023/07/04 05:46:53;;;;;;;11.10;5.90;;;;;;;24.38;62.19;99312.69;79454;1300;3011559;-64
2023/07/04 05:49:21;;;;;;;9.10;5.50;;;;;;;24.49;61.70;99311.52;78309;1299;3051004;-65
2023/07/04 05:51:48;;;;;;;10.20;5.70;;;;;;;24.59;61.53;99308.27;79507;1295;3020652;-64
2023/07/04 05:54:15;;;;;;;11.80;6.30;;;;;;;24.72;61.36;99314.42;79562;1294;3011487;-64
2023/07/04 05:56:43;;;;;;;7.30;5.40;;;;;;;24.83;61.29;99316.04;78295;1300;3026352;-63
2023/07/04 05:59:09;;;;;;;11.50;5.50;;;;;;;24.94;61.11;99313.39;79483;1298;3018395;-64
2023/07/04 06:01:43;;;;;;;12.60;6.40;;;;;;;25.09;60.55;99314.65;79525;1298;3011574;-64
2023/07/04 06:04:11;;;;;;;10.20;6.00;;;;;;;25.22;59.98;99309.77;78413;1299;3052513;-61
2023/07/04 06:06:39;;;;;;;8.10;5.30;;;;;;;25.32;59.36;99308.88;79599;1295;3013980;-63
2023/07/04 06:09:11;;;;;;;10.80;5.90;;;;;;;25.44;58.91;99313.44;79446;1295;3011666;-64
2023/07/04 06:11:43;;;;;;;12.00;6.70;;;;;;;25.53;58.54;99310.78;78310;1298;3050500;-62
2023/07/04 06:14:13;;;;;;;13.40;7.40;;;;;;;25.56;58.48;99314.40;79459;1298;3011872;-62
2023/07/04 06:16:41;;;;;;;13.70;8.00;;;;;;;25.62;58.31;99313.70;78338;1299;3053967;-61
2023/07/04 06:19:07;;;;;;;18.00;8.50;;;;;;;25.65;58.47;99311.14;79432;1298;3020566;-63
2023/07/04 06:21:35;;;;;;;21.70;8.70;;;;;;;25.76;58.44;99314.73;79651;1294;3011359;-63
2023/07/04 06:24:03;;;;;;;16.80;8.30;;;;;;;25.88;58.38;99314.11;78310;1294;3026717;-62
2023/07/04 06:26:32;;;;;;;16.90;9.00;;;;;;;25.99;57.86;99313.11;79423;1294;3012958;-63
2023/07/04 06:29:01;;;;;;;18.30;9.40;;;;;;;26.06;57.25;99318.02;78866;1297;3011868;-63
2023/07/04 06:31:27;;;;;;;21.70;9.70;;;;;;;26.12;57.53;99314.25;79485;1299;3012816;-65
2023/07/04 06:33:55;;;;;;;28.00;9.90;;;;;;;26.21;57.50;99316.67;79464;1299;3011945;-61
2023/07/04 06:36:23;;;;;;;22.00;11.00;;;;;;;26.35;56.94;99318.09;78225;1299;3027967;-63
2023/07/04 06:38:50;;;;;;;25.20;11.10;;;;;;;26.41;56.81;99316.15;79520;1295;3013010;-63
2023/07/04 06:41:16;;;;;;;22.80;10.60;;;;;;;26.54;56.95;99328.30;79488;1294;3011614;-64
2023/07/04 06:43:45;;;;;;;22.50;9.30;;;;;;;26.69;56.18;99324.67;78174;1299;3025963;-63
2023/07/04 06:46:14;;;;;;;23.50;9.50;;;;;;;26.79;55.76;99327.81;79447;1294;3013685;-63
2023/07/04 06:48:46;;;;;;;19.80;9.20;;;;;;;26.89;54.79;99321.31;78849;1295;3013423;-64
2023/07/04 06:51:13;;;;;;;22.30;8.90;;;;;;;26.99;54.83;99320.94;79435;1294;3014116;-65
2023/07/04 06:53:41;;;;;;;21.40;9.20;;;;;;;26.93;53.66;99325.85;78165;1299;3026785;-62
2023/07/04 06:56:16;;;;;;;19.20;8.40;;;;;;;26.91;53.65;99327.55;79447;1295;3018949;-63
2023/07/04 06:58:49;;;;;;;22.90;9.10;;;;;;;26.85;54.11;99330.61;78218;1295;3054759;-64
2023/07/04 07:01:15;;;;;;;17.20;7.70;;;;;;;26.92;53.98;99328.45;79436;1295;3011814;-64
2023/07/04 07:03:43;;;;;;;16.10;7.40;;;;;;;27.00;53.55;99333.66;78190;1298;3029203;-61
2023/07/04 07:06:11;;;;;;;13.90;8.10;;;;;;;27.02;52.92;99338.08;79447;1294;3013341;-63
2023/07/04 07:08:38;;;;;;;16.90;8.30;;;;;;;27.02;53.13;99337.20;79479;1298;3011529;-63
2023/07/04 07:11:11;;;;;;;18.80;7.70;;;;;;;26.97;53.49;99334.19;78199;1299;3056446;-66
2023/07/04 07:13:39;;;;;;;15.40;7.30;;;;;;;27.13;53.53;99335.05;79405;1295;3011710;-62
2023/07/04 07:16:10;;;;;;;16.10;6.90;;;;;;;27.30;53.19;99336.91;78195;1300;3054422;-65
2023/07/04 07:18:39;;;;;;;21.20;7.50;;;;;;;27.43;52.09;99335.88;79477;1295;3012914;-62
2023/07/04 07:21:08;;;;;;;24.80;8.00;;;;;;;27.48;52.33;99338.34;78178;1294;3052963;-64
2023/07/04 07:23:36;;;;;;;22.70;8.90;;;;;;;27.58;52.61;99337.38;79513;1295;3013084;-63
2023/07/04 07:26:04;;;;;;;16.20;9.20;;;;;;;27.69;52.49;99339.49;79453;1294;3012453;-63
2023/07/04 07:28:38;;;;;;;25.90;10.50;;;;;;;27.73;52.31;99344.40;78277;1294;3056525;-63
2023/07/04 07:31:16;;;;;;;17.30;9.00;;;;;;;27.76;52.33;99347.02;79653;1295;3012967;-63
2023/07/04 07:33:45;;;;;;;17.10;9.70;;;;;;;27.71;51.78;99342.94;78201;1295;3053304;-62
2023/07/04 07:36:23;;;;;;;17.60;9.00;;;;;;;27.59;52.17;99340.66;79567;1294;3014077;-61
2023/07/04 07:38:52;;;;;;;21.60;9.40;;;;;;;27.73;52.47;99342.31;78294;1295;3053245;-64
2023/07/04 07:41:19;;;;;;;16.50;9.00;;;;;;;27.92;52.34;99346.83;79580;1295;3013180;-64
2023/07/04 07:43:46;;;;;;;12.80;8.20;;;;;;;28.03;51.42;99342.06;79560;1295;3012844;-63
2023/07/04 07:46:16;;;;;;;14.90;7.50;;;;;;;28.16;51.20;99339.44;78277;1299;3049280;-64
2023/07/04 07:48:43;;;;;;;12.10;8.00;;;;;;;28.20;50.93;99334.30;79588;1296;3013542;-65
2023/07/04 07:51:11;;;;;;;15.00;8.40;;;;;;;28.26;50.94;99331.44;79479;1300;3013285;-65
2023/07/04 07:53:41;;;;;;;10.50;7.90;;;;;;;28.36;50.78;99332.14;78298;1301;3053358;-64
2023/07/04 07:56:09;;;;;;;11.60;6.90;;;;;;;28.44;50.14;99329.23;79573;1295;3013193;-63
2023/07/04 07:58:38;;;;;;;15.00;7.80;;;;;;;28.53;49.86;99329.02;79133;1295;3011759;-62
2023/07/04 08:01:11;;;;;;;9.20;7.00;;;;;;;28.53;49.41;99328.94;79456;1294;3013214;-64
2023/07/04 08:03:40;;;;;;;10.90;7.00;;;;;;;28.58;49.07;99326.33;78268;1299;3054067;-62
2023/07/04 08:06:08;;;;;;;13.40;7.20;;;;;;;28.69;49.34;99321.65;79540;1301;3012798;-66
2023/07/04 08:08:34;;;;;;;15.10;7.10;;;;;;;28.82;48.65;99321.06;79583;1294;3011597;-64
2023/07/04 08:11:02;;;;;;;13.70;7.50;;;;;;;28.92;48.85;99324.45;78273;1299;3067829;-62
2023/07/04 08:13:29;;;;;;;14.70;7.70;;;;;;;28.96;48.14;99321.06;79517;1294;3012733;-63
2023/07/04 08:15:56;;;;;;;12.60;6.50;;;;;;;28.94;47.92;99322.15;79446;1298;3011695;-62
2023/07/04 08:18:24;;;;;;;7.80;5.90;;;;;;;29.06;47.62;99326.02;78254;1298;3028726;-62
2023/07/04 08:20:58;;;;;;;14.40;6.50;;;;;;;29.16;47.17;99321.80;79516;1297;3013257;-64
2023/07/04 08:23:26;;;;;;;11.50;5.60;;;;;;;29.20;46.92;99330.09;78244;1299;3050637;-62
2023/07/04 08:25:54;;;;;;;11.30;6.20;;;;;;;29.28;47.70;99324.61;79459;1297;3014202;-64
2023/07/04 08:28:23;;;;;;;15.10;6.80;;;;;;;29.42;47.73;99325.23;79558;1295;3011903;-63
2023/07/04 08:30:52;;;;;;;13.20;6.10;;;;;;;29.53;47.56;99322.17;78335;1300;3050108;-63
2023/07/04 08:33:18;;;;;;;12.30;6.50;;;;;;;29.62;47.63;99324.98;79631;1294;3013007;-63
2023/07/04 08:35:59;;;;;;;14.30;6.10;;;;;;;29.74;47.70;99326.54;79518;1301;3011788;-65
2023/07/04 08:38:27;;;;;;;13.10;6.10;;;;;;;29.89;47.44;99323.84;78363;1294;3053505;-63
2023/07/04 08:40:54;;;;;;;10.30;6.10;;;;;;;29.91;46.68;99324.98;79482;1298;3013724;-61
2023/07/04 08:43:41;;;;;;;12.60;6.10;;;;;;;29.92;46.15;99327.20;79550;1294;3011709;-62
2023/07/04 08:46:11;;;;;;;11.60;5.60;;;;;;;30.00;46.08;99326.62;78234;1299;3049932;-63
2023/07/04 08:48:40;;;;;;;17.10;5.70;;;;;;;30.11;45.98;99324.09;79548;1295;3011620;-64
2023/07/04 08:51:08;;;;;;;15.20;5.70;;;;;;;30.24;45.20;99328.32;78320;1298;3026288;-62
2023/07/04 08:53:36;;;;;;;16.30;5.80;;;;;;;30.33;44.77;99327.81;79523;1300;3014900;-62
2023/07/04 08:56:31;;;;;;;7.80;5.40;;;;;;;30.39;43.98;99332.38;79359;1300;3013417;-63
2023/07/04 08:59:37;;;;;;;14.00;5.30;;;;;;;30.49;43.48;99329.27;78396;1294;3051765;-65
2023/07/04 09:02:43;;;;;;;11.30;5.20;;;;;;;30.64;43.47;99324.99;78192;1294;3056715;-66
2023/07/04 09:05:49;;;;;;;10.00;4.90;;;;;;;30.77;43.38;99323.78;78340;1299;3050013;-63
2023/07/04 09:08:32;;;;;;;8.40;5.10;;;;;;;30.91;42.81;99326.59;78316;1299;3052112;-63
2023/07/04 09:11:06;;;;;;;10.30;5.10;;;;;;;30.95;42.78;99323.98;78315;1298;3049606;-62
2023/07/04 09:13:39;;;;;;;12.10;4.80;;;;;;;31.00;42.24;99322.15;79581;1295;3011598;-63
2023/07/04 09:16:16;;;;;;;10.50;4.80;;;;;;;31.09;41.52;99324.92;78313;1294;3052763;-64
2023/07/04 09:18:53;;;;;;;8.70;4.30;;;;;;;31.13;41.70;99325.90;79401;1300;3011647;-63
2023/07/04 09:21:22;;;;;;;12.30;4.60;;;;;;;31.17;41.69;99321.93;78274;1295;3052366;-63
2023/07/04 09:23:49;;;;;;;9.90;5.10;;;;;;;31.26;42.03;99321.33;79679;1294;3013238;-63
2023/07/04 09:26:20;;;;;;;7.40;4.80;;;;;;;31.41;41.69;99322.85;79496;1295;3011671;-63
2023/07/04 09:28:49;;;;;;;10.50;4.90;;;;;;;31.48;40.61;99330.04;78127;1300;3049991;-63
2023/07/04 09:31:20;;;;;;;9.30;5.20;;;;;;;31.55;40.33;99323.45;79548;1300;3013148;-62
2023/07/04 09:33:50;;;;;;;12.80;5.20;;;;;;;31.60;40.25;99323.01;78292;1295;3069386;-63
2023/07/04 09:36:17;;;;;;;9.70;4.60;;;;;;;31.80;40.16;99322.77;79654;1295;3011818;-64
2023/07/04 09:39:05;;;;;;;8.80;5.40;;;;;;;31.86;40.08;99323.48;78935;1295;3011860;-63
2023/07/04 09:41:33;;;;;;;14.70;5.30;;;;;;;31.89;40.07;99322.22;78171;1299;3049834;-63
2023/07/04 09:44:19;;;;;;;6.60;4.80;;;;;;;32.01;39.52;99322.77;79664;1294;3013498;-64
2023/07/04 09:46:49;;;;;;;12.80;5.30;;;;;;;32.09;38.50;99314.13;78246;1298;3053029;-63
2023/07/04 09:49:48;;;;;;;9.70;5.10;;;;;;;32.16;38.49;99316.91;79546;1298;3011524;-63
2023/07/04 09:52:16;;;;;;;12.20;4.80;;;;;;;32.28;38.40;99313.36;77899;1300;3069389;-62
2023/07/04 09:54:43;;;;;;;8.00;4.80;;;;;;;32.46;38.13;99310.37;79571;1299;3012914;-63
2023/07/04 09:57:27;;;;;;;10.50;5.50;;;;;;;32.56;37.83;99315.23;79493;1295;3011566;-63
2023/07/04 09:59:55;;;;;;;8.10;4.60;;;;;;;32.71;36.78;99319.42;78125;1298;3053737;-63
2023/07/04 10:02:24;;;;;;;8.40;5.50;;;;;;;32.77;36.37;99318.99;79332;1300;3018839;-61
2023/07/04 10:04:53;;;;;;;8.30;5.00;;;;;;;32.79;36.74;99312.48;79035;1299;3013086;-64
2023/07/04 10:07:21;;;;;;;9.50;5.20;;;;;;;32.56;36.68;99313.18;79460;1298;3013675;-61
2023/07/04 10:09:48;;;;;;;16.90;5.00;;;;;;;32.33;37.20;99316.20;79520;1300;3011676;-64
2023/07/04 10:12:17;;;;;;;7.50;5.70;;;;;;;31.90;37.48;99324.84;78199;1298;3056271;-63
2023/07/04 10:14:53;;;;;;;8.70;5.60;;;;;;;31.68;37.85;99326.13;79514;1295;3014861;-62
2023/07/04 10:17:28;;;;;;;10.40;5.20;;;;;;;31.43;37.54;99329.16;78247;1299;3049973;-63
2023/07/04 10:20:00;;;;;;;10.30;5.50;;;;;;;31.34;37.93;99331.19;78991;1298;3011607;-63
2023/07/04 10:22:38;;;;;;;9.20;5.40;;;;;;;31.27;38.33;99326.20;79488;1294;3012939;-64
2023/07/04 10:25:17;;;;;;;9.60;5.30;;;;;;;31.16;38.65;99329.23;78326;1299;3053340;-62
2023/07/04 10:27:50;;;;;;;11.40;5.50;;;;;;;31.13;38.54;99329.54;78104;1300;3068900;-64
2023/07/04 10:30:20;;;;;;;12.20;5.40;;;;;;;31.26;38.08;99330.47;79499;1295;3011477;-63
2023/07/04 10:32:59;;;;;;;9.50;5.50;;;;;;;31.41;37.59;99327.48;78301;1294;3056509;-64
2023/07/04 10:35:29;;;;;;;18.20;5.40;;;;;;;31.45;37.52;99329.63;78256;1294;3048520;-63
2023/07/04 10:37:59;;;;;;;12.20;5.30;;;;;;;31.69;37.10;99325.88;79499;1295;3012095;-63
2023/07/04 10:40:27;;;;;;;11.90;5.10;;;;;;;32.00;37.20;99325.61;78316;1295;3050005;-63
2023/07/04 10:43:03;;;;;;;9.20;6.10;;;;;;;32.30;36.64;99320.90;79310;1300;3018785;-62
2023/07/04 10:45:31;;;;;;;13.50;6.60;;;;;;;32.29;36.39;99319.53;78276;1294;3069757;-64
2023/07/04 10:47:59;;;;;;;14.80;7.20;;;;;;;32.06;36.21;99327.00;79434;1299;3013199;-62
2023/07/04 10:50:32;;;;;;;10.10;6.50;;;;;;;31.71;36.39;99327.51;79451;1295;3011650;-63
2023/07/04 10:53:00;;;;;;;11.20;6.80;;;;;;;31.65;36.45;99323.90;78196;1295;3053889;-63
2023/07/04 10:55:37;;;;;;;10.90;7.40;;;;;;;31.85;36.38;99319.84;79451;1298;3013430;-63
2023/07/04 10:58:08;;;;;;;12.80;6.40;;;;;;;32.18;36.31;99315.43;78215;1299;3052908;-63
2023/07/04 11:00:42;;;;;;;10.30;7.20;;;;;;;32.39;35.91;99311.69;79528;1301;3011634;-62
2023/07/04 11:03:36;;;;;;;11.20;7.20;;;;;;;32.20;35.83;99310.10;78321;1295;3051258;-60
2023/07/04 11:06:08;;;;;;;14.40;7.50;;;;;;;31.92;36.19;99315.93;78253;1298;3057277;-63
2023/07/04 11:08:37;;;;;;;13.70;7.40;;;;;;;31.89;36.24;99317.50;79678;1295;3011949;-62
2023/07/04 11:11:07;;;;;;;11.40;7.40;;;;;;;31.82;35.93;99316.80;78264;1295;3052850;-61
2023/07/04 11:13:34;;;;;;;12.60;7.40;;;;;;;31.85;35.94;99316.95;79543;1299;3013105;-62
2023/07/04 11:16:03;;;;;;;11.00;7.00;;;;;;;32.05;35.73;99313.02;79530;1294;3011563;-64
2023/07/04 11:18:37;;;;;;;15.70;8.00;;;;;;;32.39;35.14;99306.30;78240;1295;3068199;-63
2023/07/04 11:21:12;;;;;;;9.50;7.40;;;;;;;32.50;34.66;99302.17;79321;1294;3011765;-62
2023/07/04 11:23:49;;;;;;;11.00;6.50;;;;;;;32.70;33.49;99302.81;78190;1299;3056851;-63
2023/07/04 11:26:18;;;;;;;10.50;7.00;;;;;;;32.95;33.05;99303.44;78238;1294;3049158;-63